createdAt,value
2023-05-15T00:02:38.345Z,15.62
2023-05-15T00:07:30.572Z,15.47
2023-05-15T00:12:22.417Z,14.78
2023-05-15T00:17:14.590Z,15.08
2023-05-15T00:22:06.593Z,15.12
2023-05-15T00:27:00.567Z,14.66
2023-05-15T00:31:52.684Z,15.00
2023-05-15T00:36:45.413Z,14.30
2023-05-15T00:41:39.994Z,14.97
2023-05-15T00:46:32.719Z,14.40
2023-05-15T00:51:27.883Z,14.79
2023-05-15T00:56:21.498Z,14.58
2023-05-15T01:01:16.239Z,14.23
2023-05-15T01:06:08.419Z,14.66
2023-05-15T01:11:02.756Z,14.61
2023-05-15T01:15:55.625Z,14.09
2023-05-15T01:20:55.766Z,14.50
2023-05-15T01:26:06.193Z,14.52
2023-05-15T01:31:06.429Z,14.17
2023-05-15T01:36:18.462Z,14.33
2023-05-15T01:41:22.437Z,14.16
2023-05-15T01:46:21.508Z,14.91
2023-05-15T01:51:17.886Z,14.66
2023-05-15T01:56:12.619Z,15.20
2023-05-15T02:01:06.993Z,15.61
2023-05-15T02:06:05.166Z,15.73
2023-05-15T02:11:02.811Z,15.82
2023-05-15T02:15:54.900Z,15.94
2023-05-15T02:20:47.837Z,14.89
2023-05-15T02:26:10.085Z,15.62
2023-05-15T02:31:07.259Z,15.96
2023-05-15T02:36:14.644Z,15.88
2023-05-15T02:41:07.971Z,16.12
2023-05-15T02:46:00.657Z,15.69
2023-05-15T02:50:53.438Z,15.99
2023-05-15T02:55:45.386Z,16.07
2023-05-15T03:00:37.297Z,15.77
2023-05-15T03:05:30.598Z,15.61
2023-05-15T03:10:24.279Z,15.65
2023-05-15T03:15:16.275Z,15.50
2023-05-15T03:20:09.058Z,15.37
2023-05-15T03:25:06.332Z,15.49
2023-05-15T03:29:58.296Z,15.60
2023-05-15T03:34:52.587Z,15.76
2023-05-15T03:39:46.705Z,15.58
2023-05-15T03:44:38.652Z,15.54
2023-05-15T03:49:30.678Z,15.12
2023-05-15T03:54:24.405Z,15.64
2023-05-15T03:59:17.880Z,15.54
2023-05-15T04:04:10.732Z,15.53
2023-05-15T04:09:02.786Z,15.53
2023-05-15T04:13:55.588Z,15.62
2023-05-15T04:18:47.841Z,15.18
2023-05-15T04:23:42.517Z,15.14
2023-05-15T04:28:34.790Z,15.38
2023-05-15T04:33:26.667Z,15.47
2023-05-15T04:38:18.614Z,15.40
2023-05-15T04:43:10.640Z,15.58
2023-05-15T04:48:02.897Z,15.43
2023-05-15T04:52:55.020Z,15.08
2023-05-15T04:57:48.111Z,15.51
2023-05-15T05:02:43.954Z,15.33
2023-05-15T05:07:36.169Z,15.55
2023-05-15T05:12:28.690Z,14.80
2023-05-15T05:17:20.580Z,15.65
2023-05-15T05:22:14.284Z,15.65
2023-05-15T05:27:06.762Z,15.73
2023-05-15T05:32:01.736Z,15.71
2023-05-15T05:36:54.067Z,15.47
2023-05-15T05:41:46.120Z,15.90
2023-05-15T05:46:38.145Z,15.70
2023-05-15T05:51:32.592Z,14.83
2023-05-15T05:56:24.483Z,15.67
2023-05-15T06:01:16.978Z,15.84
2023-05-15T06:06:09.045Z,15.56
2023-05-15T06:11:01.738Z,15.80
2023-05-15T06:15:53.616Z,15.15
2023-05-15T06:20:46.572Z,15.95
2023-05-15T06:25:38.714Z,15.99
2023-05-15T06:30:32.515Z,15.84
2023-05-15T06:35:25.649Z,15.41
2023-05-15T06:40:17.654Z,15.86
2023-05-15T06:45:10.837Z,16.48
2023-05-15T06:50:06.869Z,16.43
2023-05-15T06:54:58.751Z,16.56
2023-05-15T06:59:51.104Z,16.32
2023-05-15T07:04:43.426Z,16.69
2023-05-15T07:09:36.869Z,16.55
2023-05-15T07:14:29.054Z,16.54
2023-05-15T07:19:21.252Z,16.24
2023-05-15T07:24:13.184Z,15.67
2023-05-15T07:29:07.489Z,16.15
2023-05-15T07:33:59.501Z,15.65
2023-05-15T07:38:54.230Z,15.55
2023-05-15T07:43:46.289Z,15.35
2023-05-15T07:48:43.553Z,15.30
2023-05-15T07:53:35.645Z,16.05
2023-05-15T07:58:27.537Z,16.03
2023-05-15T08:03:19.681Z,16.61
2023-05-15T08:08:11.812Z,16.73
2023-05-15T08:13:03.710Z,16.59
2023-05-15T08:17:57.984Z,16.65
2023-05-15T08:22:49.845Z,16.20
2023-05-15T08:27:41.823Z,16.96
2023-05-15T08:32:33.725Z,17.30
2023-05-15T08:37:26.724Z,17.33
2023-05-15T08:42:24.315Z,17.86
2023-05-15T08:47:16.859Z,18.02
2023-05-15T08:52:09.475Z,18.65
2023-05-15T08:57:03.489Z,23.05
2023-05-15T09:01:57.189Z,23.15
2023-05-15T09:06:50.724Z,25.27
2023-05-15T09:11:45.499Z,26.34
2023-05-15T09:16:39.524Z,24.82
2023-05-15T09:21:31.748Z,26.32
2023-05-15T09:26:24.917Z,27.80
2023-05-15T09:31:19.790Z,28.72
2023-05-15T09:36:21.831Z,29.32
2023-05-15T09:41:14.035Z,27.58
2023-05-15T09:46:08.960Z,26.53
2023-05-15T09:51:01.883Z,25.64
2023-05-15T09:55:56.786Z,25.28
2023-05-15T10:00:49.775Z,24.53
2023-05-15T10:05:43.758Z,25.00
2023-05-15T10:10:36.382Z,24.75
2023-05-15T10:15:29.232Z,23.80
2023-05-15T10:20:23.986Z,24.25
2023-05-15T10:25:36.969Z,23.44
2023-05-15T10:30:29.205Z,23.60
2023-05-15T10:35:23.780Z,23.32
2023-05-15T10:40:17.398Z,23.71
2023-05-15T10:45:10.884Z,23.36
2023-05-15T10:50:04.886Z,22.82
2023-05-15T10:54:57.774Z,23.30
2023-05-15T10:59:50.772Z,22.40
2023-05-15T11:04:45.005Z,22.58
2023-05-15T11:09:40.440Z,22.82
2023-05-15T11:14:36.662Z,22.93
2023-05-15T11:19:28.556Z,22.96
2023-05-15T11:24:21.442Z,22.72
2023-05-15T11:29:19.595Z,23.12
2023-05-15T11:34:13.838Z,23.03
2023-05-15T11:39:12.302Z,21.91
2023-05-15T11:44:05.048Z,22.45
2023-05-15T11:48:58.388Z,22.76
2023-05-15T11:53:54.615Z,23.05
2023-05-15T11:58:51.056Z,22.97
2023-05-15T12:03:43.194Z,22.88
2023-05-15T12:08:37.587Z,23.33
2023-05-15T12:13:33.237Z,22.99
2023-05-15T12:18:25.566Z,23.39
2023-05-15T12:23:20.535Z,22.94
2023-05-15T12:28:13.003Z,21.80
2023-05-15T12:33:07.053Z,22.25
2023-05-15T12:37:58.970Z,21.36
2023-05-15T12:43:00.788Z,22.39
2023-05-15T12:47:52.678Z,22.44
2023-05-15T12:52:51.574Z,22.36
2023-05-15T12:57:44.898Z,22.79
2023-05-15T13:02:37.974Z,22.91
2023-05-15T13:07:30.322Z,22.63
2023-05-15T13:12:23.900Z,22.88
2023-05-15T13:17:16.003Z,22.25
2023-05-15T13:22:09.914Z,22.98
2023-05-15T13:27:01.875Z,23.33
2023-05-15T13:31:53.810Z,23.26
2023-05-15T13:36:47.358Z,23.37
2023-05-15T13:41:43.096Z,22.53
2023-05-15T13:46:35.099Z,22.53
2023-05-15T13:51:29.605Z,23.05
2023-05-15T13:56:22.531Z,23.19
2023-05-15T14:01:15.283Z,22.97
2023-05-15T14:06:07.308Z,23.07
2023-05-15T14:11:01.656Z,23.06
2023-05-15T14:15:53.768Z,23.46
2023-05-15T14:20:45.768Z,22.53
2023-05-15T14:25:38.597Z,23.43
2023-05-15T14:30:32.239Z,22.46
2023-05-15T14:35:24.152Z,22.18
2023-05-15T14:40:15.979Z,21.76
2023-05-15T14:45:08.623Z,21.28
2023-05-15T14:50:01.480Z,21.89
2023-05-15T14:55:07.784Z,22.52
2023-05-15T15:00:01.162Z,22.50
2023-05-15T15:04:54.238Z,22.78
2023-05-15T15:09:51.083Z,22.86
2023-05-15T15:14:42.920Z,21.01
2023-05-15T15:19:36.531Z,21.37
2023-05-15T15:24:29.499Z,21.79
2023-05-15T15:29:21.469Z,21.50
2023-05-15T15:34:14.500Z,21.67
2023-05-15T15:39:09.866Z,21.46
2023-05-15T15:44:01.737Z,20.79
2023-05-15T15:48:54.006Z,21.07
2023-05-15T15:53:45.914Z,21.28
2023-05-15T15:58:38.084Z,19.98
2023-05-15T16:03:31.511Z,20.62
2023-05-15T16:08:25.085Z,20.80
2023-05-15T16:13:17.049Z,20.13
2023-05-15T16:18:09.018Z,18.30
2023-05-15T16:23:05.743Z,19.59
2023-05-15T16:27:58.608Z,19.99
2023-05-15T16:32:51.097Z,19.53
2023-05-15T16:37:44.863Z,19.12
2023-05-15T16:42:38.746Z,19.21
2023-05-15T16:47:32.404Z,18.73
2023-05-15T16:52:24.519Z,19.15
2023-05-15T16:57:17.153Z,18.98
2023-05-15T17:02:10.506Z,18.64
2023-05-15T17:07:05.639Z,18.49
2023-05-15T17:11:57.456Z,18.68
2023-05-15T17:16:50.894Z,18.84
2023-05-15T17:21:43.329Z,18.89
2023-05-15T17:26:36.123Z,18.34
2023-05-15T17:31:29.678Z,18.69
2023-05-15T17:36:21.810Z,18.81
2023-05-15T17:41:13.715Z,18.65
2023-05-15T17:46:06.358Z,18.63
2023-05-15T17:50:59.162Z,18.56
2023-05-15T17:55:54.944Z,17.60
2023-05-15T18:00:46.908Z,18.01
2023-05-15T18:05:39.528Z,17.31
2023-05-15T18:10:32.063Z,16.96
2023-05-15T18:15:25.985Z,17.13
2023-05-15T18:20:18.442Z,17.49
2023-05-15T18:25:13.503Z,17.09
2023-05-15T18:30:06.412Z,16.60
2023-05-15T18:34:59.104Z,17.20
2023-05-15T18:39:52.047Z,17.13
2023-05-15T18:44:45.996Z,16.88
2023-05-15T18:49:38.621Z,16.07
2023-05-15T18:54:31.860Z,16.75
2023-05-15T18:59:23.751Z,16.49
2023-05-15T19:04:16.654Z,16.03
2023-05-15T19:09:09.599Z,16.05
2023-05-15T19:14:02.521Z,15.88
2023-05-15T19:18:55.730Z,15.93
2023-05-15T19:23:50.593Z,15.86
2023-05-15T19:28:44.145Z,15.01
2023-05-15T19:33:37.015Z,15.61
2023-05-15T19:38:28.969Z,15.55
2023-05-15T19:43:22.743Z,15.47
2023-05-15T19:48:14.562Z,15.08
2023-05-15T19:53:06.621Z,15.36
2023-05-15T19:58:02.412Z,14.70
2023-05-15T20:02:55.053Z,13.79
2023-05-15T20:07:47.787Z,14.85
2023-05-15T20:12:42.660Z,15.09
2023-05-15T20:17:34.663Z,15.01
2023-05-15T20:22:26.693Z,14.77
2023-05-15T20:27:20.132Z,14.42
2023-05-15T20:32:13.319Z,14.21
2023-05-15T20:37:05.761Z,14.15
2023-05-15T20:41:58.948Z,14.26
2023-05-15T20:46:52.320Z,13.95
2023-05-15T20:51:48.808Z,14.35
2023-05-15T20:56:41.237Z,14.59
2023-05-15T21:01:36.581Z,14.63
2023-05-15T21:06:28.462Z,14.49
2023-05-15T21:11:20.340Z,14.45
2023-05-15T21:16:12.131Z,14.65
2023-05-15T21:21:09.294Z,14.23
2023-05-15T21:26:05.925Z,14.66
2023-05-15T21:30:57.819Z,14.24
2023-05-15T21:35:53.075Z,13.94
2023-05-15T21:40:45.041Z,14.49
2023-05-15T21:45:36.884Z,14.24
2023-05-15T21:50:30.844Z,14.36
2023-05-15T21:55:25.620Z,14.10
2023-05-15T22:00:19.614Z,13.96
2023-05-15T22:05:12.398Z,14.10
2023-05-15T22:10:06.351Z,13.93
2023-05-15T22:14:59.907Z,13.63
2023-05-15T22:19:53.072Z,14.18
2023-05-15T22:24:44.896Z,14.06
2023-05-15T22:29:37.107Z,14.20
2023-05-15T22:34:30.034Z,14.17
2023-05-15T22:39:25.326Z,13.86
2023-05-15T22:44:18.065Z,14.26
2023-05-15T22:49:24.283Z,13.89
2023-05-15T22:54:16.094Z,14.11
2023-05-15T22:59:08.005Z,14.12
2023-05-15T23:03:59.846Z,13.88
2023-05-15T23:08:52.908Z,13.73
2023-05-15T23:13:44.872Z,14.11
2023-05-15T23:18:36.688Z,13.69
2023-05-15T23:23:28.545Z,14.00
2023-05-15T23:28:23.099Z,13.65
2023-05-15T23:33:17.235Z,13.51
2023-05-15T23:38:09.934Z,13.67
2023-05-15T23:43:01.776Z,13.04
2023-05-15T23:47:54.116Z,12.73
2023-05-15T23:52:46.406Z,12.89
2023-05-15T23:57:40.349Z,12.73
